createdAt,value
2022-10-14T00:02:19.878Z,17.67
2022-10-14T00:04:54.369Z,17.69
2022-10-14T00:07:27.323Z,17.66
2022-10-14T00:10:00.534Z,17.67
2022-10-14T00:12:33.780Z,17.68
2022-10-14T00:15:08.008Z,17.68
2022-10-14T00:17:40.952Z,17.67
2022-10-14T00:20:15.255Z,17.66
2022-10-14T00:22:48.053Z,17.66
2022-10-14T00:25:20.877Z,17.66
2022-10-14T00:27:53.924Z,17.63
2022-10-14T00:30:26.779Z,17.64
2022-10-14T00:32:59.725Z,17.64
2022-10-14T00:35:33.898Z,17.63
2022-10-14T00:38:06.873Z,17.62
2022-10-14T00:40:39.741Z,17.61
2022-10-14T00:43:14.276Z,17.62
2022-10-14T00:45:47.128Z,17.60
2022-10-14T00:48:22.360Z,17.60
2022-10-14T00:50:58.402Z,17.59
2022-10-14T00:53:31.363Z,17.57
2022-10-14T00:56:04.648Z,17.57
2022-10-14T00:58:39.333Z,17.56
2022-10-14T01:01:12.574Z,17.52
2022-10-14T01:03:45.589Z,17.51
2022-10-14T01:06:31.965Z,17.52
2022-10-14T01:09:13.229Z,17.49
2022-10-14T01:12:23.534Z,17.49
2022-10-14T01:15:05.360Z,17.48
2022-10-14T01:17:48.938Z,17.50
2022-10-14T01:20:49.366Z,17.49
2022-10-14T01:23:50.630Z,17.45
2022-10-14T01:26:43.539Z,17.42
2022-10-14T01:29:30.009Z,17.38
2022-10-14T01:32:12.554Z,17.32
2022-10-14T01:34:53.046Z,17.27
2022-10-14T01:37:29.233Z,17.21
2022-10-14T01:40:06.922Z,17.14
2022-10-14T01:42:43.738Z,17.08
2022-10-14T01:45:20.706Z,17.02
2022-10-14T01:47:57.012Z,16.96
2022-10-14T01:50:32.531Z,16.90
2022-10-14T01:53:08.498Z,16.87
2022-10-14T01:55:47.244Z,16.85
2022-10-14T01:58:23.582Z,16.79
2022-10-14T02:00:57.741Z,16.74
2022-10-14T02:03:44.533Z,16.70
2022-10-14T02:06:23.445Z,16.62
2022-10-14T02:09:09.911Z,16.56
2022-10-14T02:11:54.931Z,16.49
2022-10-14T02:14:35.330Z,16.43
2022-10-14T02:17:13.616Z,16.38
2022-10-14T02:19:53.922Z,16.35
2022-10-14T02:22:31.128Z,16.34
2022-10-14T02:25:10.556Z,16.33
2022-10-14T02:27:45.888Z,16.31
2022-10-14T02:30:20.013Z,16.34
2022-10-14T02:32:54.165Z,16.36
2022-10-14T02:35:31.907Z,16.39
2022-10-14T02:38:07.733Z,16.40
2022-10-14T02:40:44.141Z,16.43
2022-10-14T02:43:18.057Z,16.41
2022-10-14T02:45:50.913Z,16.41
2022-10-14T02:48:23.748Z,16.42
2022-10-14T02:50:58.276Z,16.44
2022-10-14T02:53:31.720Z,16.44
2022-10-14T02:56:04.668Z,16.44
2022-10-14T02:58:37.446Z,16.45
2022-10-14T03:01:10.392Z,16.46
2022-10-14T03:03:43.163Z,16.46
2022-10-14T03:06:17.686Z,16.49
2022-10-14T03:08:51.600Z,16.48
2022-10-14T03:11:24.678Z,16.48
2022-10-14T03:13:57.498Z,16.50
2022-10-14T03:16:30.288Z,16.51
2022-10-14T03:19:03.167Z,16.51
2022-10-14T03:21:37.670Z,16.52
2022-10-14T03:24:11.144Z,16.50
2022-10-14T03:26:43.939Z,16.50
2022-10-14T03:29:16.905Z,16.47
2022-10-14T03:31:49.755Z,16.45
2022-10-14T03:34:22.627Z,16.44
2022-10-14T03:36:56.964Z,16.40
2022-10-14T03:39:30.423Z,16.36
2022-10-14T03:42:03.285Z,16.33
2022-10-14T03:44:36.065Z,16.31
2022-10-14T03:47:08.929Z,16.27
2022-10-14T03:49:41.768Z,16.24
2022-10-14T03:52:16.199Z,16.21
2022-10-14T03:54:48.969Z,16.14
2022-10-14T03:57:21.767Z,16.10
2022-10-14T03:59:54.648Z,16.03
2022-10-14T04:02:27.470Z,15.97
2022-10-14T04:05:01.219Z,15.91
2022-10-14T04:07:35.708Z,15.84
2022-10-14T04:10:15.092Z,15.75
2022-10-14T04:12:48.455Z,15.68
2022-10-14T04:15:22.456Z,15.65
2022-10-14T04:17:55.358Z,15.60
2022-10-14T04:20:28.537Z,15.57
2022-10-14T04:23:02.871Z,15.57
2022-10-14T04:25:38.330Z,15.52
2022-10-14T04:28:11.305Z,15.52
2022-10-14T04:30:44.107Z,15.51
2022-10-14T04:33:18.171Z,15.51
2022-10-14T04:35:51.670Z,15.52
2022-10-14T04:38:26.189Z,15.54
2022-10-14T04:41:00.408Z,15.56
2022-10-14T04:43:33.236Z,15.58
2022-10-14T04:46:06.819Z,15.60
2022-10-14T04:48:40.987Z,15.62
2022-10-14T04:51:13.737Z,15.66
2022-10-14T04:53:48.152Z,15.69
2022-10-14T04:56:21.113Z,15.71
2022-10-14T04:58:54.029Z,15.74
2022-10-14T05:01:30.302Z,15.77
2022-10-14T05:04:06.786Z,15.80
2022-10-14T05:06:39.753Z,15.82
2022-10-14T05:09:14.206Z,15.85
2022-10-14T05:11:47.016Z,15.89
2022-10-14T05:14:19.880Z,15.91
2022-10-14T05:16:53.011Z,15.95
2022-10-14T05:19:25.874Z,15.97
2022-10-14T05:21:58.754Z,16.01
2022-10-14T05:24:34.896Z,16.03
2022-10-14T05:27:08.416Z,16.04
2022-10-14T05:29:41.886Z,16.07
2022-10-14T05:32:14.753Z,16.09
2022-10-14T05:34:47.585Z,16.11
2022-10-14T05:37:20.400Z,16.16
2022-10-14T05:39:55.253Z,16.21
2022-10-14T05:42:28.260Z,16.25
2022-10-14T05:45:01.207Z,16.29
2022-10-14T05:47:34.083Z,16.30
2022-10-14T05:50:08.015Z,16.33
2022-10-14T05:52:41.142Z,16.35
2022-10-14T05:55:15.809Z,16.36
2022-10-14T05:57:50.013Z,16.38
2022-10-14T06:00:25.866Z,16.41
2022-10-14T06:02:59.037Z,16.45
2022-10-14T06:05:31.970Z,16.48
2022-10-14T06:08:05.303Z,16.52
2022-10-14T06:10:39.625Z,16.55
2022-10-14T06:13:12.747Z,16.59
2022-10-14T06:15:45.637Z,16.64
2022-10-14T06:18:18.399Z,16.68
2022-10-14T06:20:55.907Z,16.74
2022-10-14T06:23:28.870Z,16.77
2022-10-14T06:26:07.585Z,16.82
2022-10-14T06:28:40.604Z,16.85
2022-10-14T06:31:13.598Z,16.88
2022-10-14T06:33:46.683Z,16.93
2022-10-14T06:36:19.574Z,16.95
2022-10-14T06:38:52.397Z,16.99
2022-10-14T06:41:27.050Z,17.03
2022-10-14T06:43:59.963Z,17.05
2022-10-14T06:46:32.847Z,17.09
2022-10-14T06:49:05.732Z,17.10
2022-10-14T06:51:39.006Z,17.14
2022-10-14T06:54:12.806Z,17.19
2022-10-14T06:56:47.170Z,17.25
2022-10-14T06:59:20.010Z,17.28
2022-10-14T07:01:53.107Z,17.33
2022-10-14T07:04:26.426Z,17.37
2022-10-14T07:07:00.665Z,17.41
2022-10-14T07:09:33.574Z,17.46
2022-10-14T07:12:07.825Z,17.53
2022-10-14T07:14:40.808Z,17.58
2022-10-14T07:17:13.579Z,17.63
2022-10-14T07:19:46.722Z,17.70
2022-10-14T07:22:19.864Z,17.75
2022-10-14T07:24:53.197Z,17.82
2022-10-14T07:27:27.463Z,17.86
2022-10-14T07:30:01.692Z,17.90
2022-10-14T07:32:36.940Z,17.96
2022-10-14T07:35:10.702Z,17.97
2022-10-14T07:37:43.577Z,18.01
2022-10-14T07:40:16.459Z,18.04
2022-10-14T07:42:50.921Z,18.07
2022-10-14T07:45:24.135Z,18.09
2022-10-14T07:47:57.003Z,18.13
2022-10-14T07:50:29.812Z,18.18
2022-10-14T07:53:02.717Z,18.23
2022-10-14T07:55:35.493Z,18.29
2022-10-14T07:58:09.719Z,18.37
2022-10-14T08:00:42.629Z,18.43
2022-10-14T08:03:15.841Z,18.51
2022-10-14T08:05:50.201Z,18.56
2022-10-14T08:08:24.329Z,18.62
2022-10-14T08:11:05.933Z,18.68
2022-10-14T08:13:45.059Z,18.70
2022-10-14T08:16:21.368Z,18.71
2022-10-14T08:18:56.595Z,18.70
2022-10-14T08:21:29.814Z,18.70
2022-10-14T08:24:02.851Z,18.71
2022-10-14T08:26:37.102Z,18.72
2022-10-14T08:29:13.296Z,18.73
2022-10-14T08:31:46.841Z,18.73
2022-10-14T08:34:21.246Z,18.74
2022-10-14T08:36:54.562Z,18.77
2022-10-14T08:39:27.691Z,18.80
2022-10-14T08:42:34.653Z,18.83
2022-10-14T08:45:12.769Z,18.82
2022-10-14T08:47:48.789Z,18.82
2022-10-14T08:50:29.313Z,18.83
2022-10-14T08:53:08.347Z,18.82
2022-10-14T08:55:45.948Z,18.81
2022-10-14T09:01:13.509Z,18.81
2022-10-14T09:03:46.690Z,18.77
2022-10-14T09:06:25.955Z,18.76
2022-10-14T09:09:07.341Z,18.73
2022-10-14T09:11:43.802Z,18.70
2022-10-14T09:14:20.977Z,18.67
2022-10-14T09:16:59.430Z,18.64
2022-10-14T09:19:34.572Z,18.62
2022-10-14T09:22:14.254Z,18.64
2022-10-14T09:24:49.445Z,18.63
2022-10-14T09:27:24.248Z,18.65
2022-10-14T09:30:01.987Z,18.70
2022-10-14T09:32:41.419Z,18.74
2022-10-14T09:35:16.970Z,18.75
2022-10-14T09:37:50.521Z,18.81
2022-10-14T09:40:31.447Z,18.86
2022-10-14T09:43:11.682Z,18.92
2022-10-14T09:45:55.209Z,19.00
2022-10-14T09:48:37.537Z,19.05
2022-10-14T09:51:19.378Z,19.12
2022-10-14T09:53:54.758Z,19.20
2022-10-14T09:56:31.957Z,19.29
2022-10-14T09:59:06.286Z,19.37
2022-10-14T10:01:42.586Z,19.47
2022-10-14T10:04:33.595Z,19.59
2022-10-14T10:07:08.832Z,19.72
2022-10-14T10:09:41.806Z,19.82
2022-10-14T10:12:25.403Z,19.99
2022-10-14T10:14:59.784Z,20.11
2022-10-14T10:17:35.391Z,20.25
2022-10-14T10:20:28.552Z,20.44
2022-10-14T10:23:25.738Z,20.60
2022-10-14T10:26:16.417Z,20.79
2022-10-14T10:28:50.902Z,20.94
2022-10-14T10:31:57.220Z,21.16
2022-10-14T10:35:05.513Z,21.34
2022-10-14T10:37:51.850Z,21.55
2022-10-14T10:40:39.882Z,21.73
2022-10-14T10:43:44.876Z,21.88
2022-10-14T10:46:28.673Z,22.00
2022-10-14T10:49:11.553Z,22.11
2022-10-14T10:51:55.596Z,22.20
2022-10-14T10:54:42.817Z,22.27
2022-10-14T10:57:32.206Z,22.34
2022-10-14T11:00:09.923Z,22.37
2022-10-14T11:03:09.198Z,22.45
2022-10-14T11:05:56.796Z,22.50
2022-10-14T11:09:11.165Z,22.57
2022-10-14T11:12:06.558Z,22.67
2022-10-14T11:14:59.500Z,22.75
2022-10-14T11:17:40.720Z,22.83
2022-10-14T11:20:23.849Z,22.90
2022-10-14T11:23:14.957Z,22.99
2022-10-14T11:25:55.870Z,23.06
2022-10-14T11:28:41.635Z,23.17
2022-10-14T11:31:27.612Z,23.23
2022-10-14T11:34:15.368Z,23.28
2022-10-14T11:36:57.265Z,23.30
2022-10-14T11:39:40.988Z,23.28
2022-10-14T11:42:27.685Z,23.25
2022-10-14T11:45:21.155Z,23.20
2022-10-14T11:48:00.513Z,23.13
2022-10-14T11:50:40.552Z,23.06
2022-10-14T11:53:20.020Z,23.02
2022-10-14T11:56:01.629Z,22.93
2022-10-14T11:58:36.299Z,22.85
2022-10-14T12:01:13.691Z,22.83
2022-10-14T12:03:54.165Z,22.74
2022-10-14T12:06:34.520Z,22.64
2022-10-14T12:09:14.856Z,22.55
2022-10-14T12:11:52.379Z,22.45
2022-10-14T12:14:33.387Z,22.41
2022-10-14T12:17:18.382Z,22.36
2022-10-14T12:19:52.425Z,22.35
2022-10-14T12:22:28.901Z,22.39
2022-10-14T12:25:07.428Z,22.42
2022-10-14T12:27:40.931Z,22.47
2022-10-14T12:30:35.556Z,22.53
2022-10-14T12:33:11.247Z,22.58
2022-10-14T12:35:51.790Z,22.64
2022-10-14T12:38:24.776Z,22.65
2022-10-14T12:41:40.652Z,22.71
2022-10-14T12:44:18.742Z,22.71
2022-10-14T12:46:54.083Z,22.72
2022-10-14T12:49:32.281Z,22.75
2022-10-14T12:52:08.746Z,22.74
2022-10-14T12:54:49.774Z,22.76
2022-10-14T12:57:29.810Z,22.74
2022-10-14T13:00:08.155Z,22.76
2022-10-14T13:02:46.924Z,22.76
2022-10-14T13:05:33.413Z,22.77
2022-10-14T13:08:15.830Z,22.77
2022-10-14T13:10:50.466Z,22.75
2022-10-14T13:13:52.783Z,22.80
2022-10-14T13:17:12.010Z,22.79
2022-10-14T13:19:48.067Z,22.77
2022-10-14T13:22:42.790Z,22.81
2022-10-14T13:25:19.155Z,22.80
2022-10-14T13:28:06.116Z,22.78
2022-10-14T13:30:51.280Z,22.73
2022-10-14T13:33:31.596Z,22.67
2022-10-14T13:36:16.551Z,22.64
2022-10-14T13:38:58.173Z,22.59
2022-10-14T13:41:31.502Z,22.53
2022-10-14T13:44:04.886Z,22.50
2022-10-14T13:46:42.384Z,22.48
2022-10-14T13:49:18.561Z,22.42
2022-10-14T13:51:53.725Z,22.38
2022-10-14T13:54:30.679Z,22.35
2022-10-14T13:57:35.016Z,22.31
2022-10-14T14:02:56.767Z,22.19
2022-10-14T14:05:36.458Z,22.15
2022-10-14T14:11:21.455Z,22.07
2022-10-14T14:14:01.119Z,22.01
2022-10-14T14:16:37.660Z,21.96
2022-10-14T14:19:20.662Z,21.94
2022-10-14T14:21:53.546Z,21.90
2022-10-14T14:24:29.586Z,21.87
2022-10-14T14:27:07.262Z,21.88
2022-10-14T14:29:43.345Z,21.82
2022-10-14T14:32:17.975Z,21.77
2022-10-14T14:37:54.975Z,21.70
2022-10-14T14:40:23.864Z,21.67
2022-10-14T14:43:01.815Z,21.65
2022-10-14T14:45:43.680Z,21.62
2022-10-14T14:48:19.174Z,21.59
2022-10-14T14:50:52.444Z,21.57
2022-10-14T14:53:29.794Z,21.56
2022-10-14T14:56:10.533Z,21.55
2022-10-14T14:58:50.858Z,21.53
2022-10-14T15:01:26.276Z,21.51
2022-10-14T15:04:13.717Z,21.48
2022-10-14T15:06:52.137Z,21.48
2022-10-14T15:09:35.208Z,21.44
2022-10-14T15:12:17.269Z,21.43
2022-10-14T15:14:53.319Z,21.38
2022-10-14T15:17:34.272Z,21.37
2022-10-14T15:20:30.324Z,21.33
2022-10-14T15:23:04.327Z,21.27
2022-10-14T15:25:38.474Z,21.23
2022-10-14T15:28:30.552Z,21.20
2022-10-14T15:31:05.874Z,21.14
2022-10-14T15:33:38.811Z,21.08
2022-10-14T15:36:13.096Z,21.02
2022-10-14T15:38:46.021Z,20.98
2022-10-14T15:41:19.025Z,20.91
2022-10-14T15:43:52.145Z,20.86
2022-10-14T15:46:52.438Z,20.80
2022-10-14T15:49:29.619Z,20.75
2022-10-14T15:52:02.517Z,20.67
2022-10-14T15:54:35.836Z,20.63
2022-10-14T15:57:11.228Z,20.58
2022-10-14T15:59:46.821Z,20.53
2022-10-14T16:02:26.562Z,20.50
2022-10-14T16:07:52.344Z,20.39
2022-10-14T16:10:29.293Z,20.34
2022-10-14T16:13:04.824Z,20.29
2022-10-14T16:15:44.995Z,20.26
2022-10-14T16:18:19.472Z,20.22
2022-10-14T16:20:52.813Z,20.18
2022-10-14T16:23:29.605Z,20.14
2022-10-14T16:26:06.531Z,20.10
2022-10-14T16:28:40.028Z,20.06
2022-10-14T16:31:15.319Z,20.04
2022-10-14T16:33:51.975Z,20.00
2022-10-14T16:36:26.134Z,19.95
2022-10-14T16:39:01.752Z,19.93
2022-10-14T16:41:34.705Z,19.90
2022-10-14T16:44:08.194Z,19.88
2022-10-14T16:47:03.593Z,19.85
2022-10-14T16:49:37.864Z,19.84
2022-10-14T16:52:10.842Z,19.81
2022-10-14T16:54:44.091Z,19.78
2022-10-14T16:57:16.973Z,19.78
2022-10-14T16:59:49.873Z,19.75
2022-10-14T17:02:31.825Z,19.76
2022-10-14T17:05:09.240Z,19.75
2022-10-14T17:07:42.049Z,19.75
2022-10-14T17:10:14.965Z,19.73
2022-10-14T17:12:48.860Z,19.71
2022-10-14T17:15:33.369Z,19.72
2022-10-14T17:18:08.039Z,19.68
2022-10-14T17:21:15.714Z,19.67
2022-10-14T17:23:49.347Z,19.64
2022-10-14T17:26:22.187Z,19.62
2022-10-14T17:28:55.088Z,19.56
2022-10-14T17:31:29.192Z,19.54
2022-10-14T17:34:01.996Z,19.53
2022-10-14T17:36:36.358Z,19.52
2022-10-14T17:39:16.368Z,19.49
2022-10-14T17:41:54.419Z,19.47
2022-10-14T17:44:28.777Z,19.44
2022-10-14T17:47:03.287Z,19.42
2022-10-14T17:49:36.392Z,19.40
2022-10-14T17:52:11.343Z,19.39
2022-10-14T17:54:44.488Z,19.37
2022-10-14T17:57:17.418Z,19.35
2022-10-14T17:59:50.223Z,19.34
2022-10-14T18:02:24.512Z,19.32
2022-10-14T18:04:57.359Z,19.31
2022-10-14T18:07:31.657Z,19.29
2022-10-14T18:10:05.643Z,19.27
2022-10-14T18:12:38.496Z,19.23
2022-10-14T18:15:11.635Z,19.23
2022-10-14T18:17:44.595Z,19.20
2022-10-14T18:20:17.704Z,19.20
2022-10-14T18:22:52.791Z,19.18
2022-10-14T18:25:25.604Z,19.14
2022-10-14T18:27:58.503Z,19.13
2022-10-14T18:30:31.310Z,19.13
2022-10-14T18:33:04.932Z,19.10
2022-10-14T18:35:37.716Z,19.09
2022-10-14T18:38:12.442Z,19.09
2022-10-14T18:40:45.529Z,19.06
2022-10-14T18:43:18.360Z,19.05
2022-10-14T18:45:51.934Z,19.04
2022-10-14T18:48:25.018Z,19.02
2022-10-14T18:50:58.479Z,18.99
2022-10-14T18:53:33.893Z,18.98
2022-10-14T18:56:09.815Z,18.96
2022-10-14T18:58:43.363Z,18.93
2022-10-14T19:01:17.232Z,18.91
2022-10-14T19:03:51.913Z,18.89
2022-10-14T19:06:25.003Z,18.85
2022-10-14T19:09:01.811Z,18.84
2022-10-14T19:11:35.660Z,18.80
2022-10-14T19:14:09.203Z,18.78
2022-10-14T19:16:42.800Z,18.77
2022-10-14T19:19:18.630Z,18.78
2022-10-14T19:21:54.509Z,18.77
2022-10-14T19:24:29.009Z,18.75
2022-10-14T19:27:01.923Z,18.73
2022-10-14T19:29:34.804Z,18.74
2022-10-14T19:32:07.630Z,18.71
2022-10-14T19:34:44.844Z,18.69
2022-10-14T19:37:20.230Z,18.69
2022-10-14T19:39:55.449Z,18.67
2022-10-14T19:42:28.312Z,18.64
2022-10-14T19:45:01.140Z,18.61
2022-10-14T19:47:34.217Z,18.60
2022-10-14T19:50:08.383Z,18.58
2022-10-14T19:52:41.184Z,18.57
2022-10-14T19:55:15.686Z,18.56
2022-10-14T19:57:48.538Z,18.52
2022-10-14T20:00:21.373Z,18.51
2022-10-14T20:02:54.378Z,18.49
2022-10-14T20:05:28.978Z,18.49
2022-10-14T20:08:02.774Z,18.48
2022-10-14T20:10:37.231Z,18.48
2022-10-14T20:13:10.106Z,18.45
2022-10-14T20:15:43.029Z,18.46
2022-10-14T20:18:18.475Z,18.45
2022-10-14T20:20:51.740Z,18.43
2022-10-14T20:23:25.646Z,18.40
2022-10-14T20:26:02.467Z,18.39
2022-10-14T20:28:36.307Z,18.36
2022-10-14T20:31:10.075Z,18.34
2022-10-14T20:33:43.454Z,18.31
2022-10-14T20:36:17.849Z,18.30
2022-10-14T20:38:51.106Z,18.28
2022-10-14T20:41:27.463Z,18.27
2022-10-14T20:44:00.661Z,18.24
2022-10-14T20:46:33.553Z,18.24
2022-10-14T20:49:07.166Z,18.22
2022-10-14T20:51:40.281Z,18.22
2022-10-14T20:54:13.127Z,18.18
2022-10-14T20:56:47.548Z,18.18
2022-10-14T20:59:20.373Z,18.18
2022-10-14T21:01:53.257Z,18.16
2022-10-14T21:04:26.230Z,18.15
2022-10-14T21:06:59.083Z,18.15
2022-10-14T21:09:34.183Z,18.13
2022-10-14T21:12:08.827Z,18.12
2022-10-14T21:14:41.670Z,18.12
2022-10-14T21:17:14.729Z,18.10
2022-10-14T21:19:49.381Z,18.10
2022-10-14T21:22:22.532Z,18.09
2022-10-14T21:24:55.663Z,18.09
2022-10-14T21:27:29.921Z,18.10
2022-10-14T21:30:02.769Z,18.09
2022-10-14T21:32:35.961Z,18.08
2022-10-14T21:35:09.338Z,18.08
2022-10-14T21:37:42.318Z,18.08
2022-10-14T21:40:15.555Z,18.08
2022-10-14T21:42:49.767Z,18.09
2022-10-14T21:45:22.577Z,18.09
2022-10-14T21:47:55.498Z,18.09
2022-10-14T21:50:28.340Z,18.09
2022-10-14T21:53:01.277Z,18.11
2022-10-14T21:55:34.436Z,18.10
2022-10-14T21:58:08.824Z,18.13
2022-10-14T22:00:41.595Z,18.13
2022-10-14T22:03:17.253Z,18.14
2022-10-14T22:05:58.503Z,18.16
2022-10-14T22:08:32.401Z,18.15
2022-10-14T22:11:07.040Z,18.15
2022-10-14T22:13:41.361Z,18.16
2022-10-14T22:16:16.851Z,18.15
2022-10-14T22:18:51.742Z,18.16
2022-10-14T22:21:27.846Z,18.17
2022-10-14T22:24:00.759Z,18.16
2022-10-14T22:26:34.617Z,18.16
2022-10-14T22:29:12.921Z,18.15
2022-10-14T22:31:46.667Z,18.14
2022-10-14T22:34:19.677Z,18.11
2022-10-14T22:36:52.443Z,18.10
2022-10-14T22:39:25.303Z,18.07
2022-10-14T22:41:58.096Z,18.05
2022-10-14T22:44:32.434Z,18.06
2022-10-14T22:47:06.396Z,18.03
2022-10-14T22:49:39.214Z,18.01
2022-10-14T22:52:12.003Z,17.98
2022-10-14T22:54:45.431Z,17.95
2022-10-14T22:57:18.307Z,17.95
2022-10-14T22:59:53.226Z,17.93
2022-10-14T23:02:26.307Z,17.91
2022-10-14T23:04:59.875Z,17.90
2022-10-14T23:07:32.723Z,17.92
2022-10-14T23:10:06.278Z,17.91
2022-10-14T23:12:39.086Z,17.90
2022-10-14T23:15:13.507Z,17.91
2022-10-14T23:17:46.412Z,17.91
2022-10-14T23:20:19.310Z,17.90
2022-10-14T23:22:53.360Z,17.89
2022-10-14T23:25:26.178Z,17.91
2022-10-14T23:27:58.971Z,17.92
2022-10-14T23:30:33.558Z,17.92
2022-10-14T23:33:10.635Z,17.91
2022-10-14T23:35:43.590Z,17.91
2022-10-14T23:38:16.428Z,17.92
2022-10-14T23:40:49.266Z,17.91
2022-10-14T23:43:22.055Z,17.92
2022-10-14T23:45:56.705Z,17.91
2022-10-14T23:48:29.571Z,17.89
2022-10-14T23:51:02.542Z,17.89
2022-10-14T23:53:36.302Z,17.90
2022-10-14T23:56:09.308Z,17.90
2022-10-14T23:58:42.069Z,17.91
